sensor_id;sensor_type;location;lat;lon;timestamp;P1;durP1;ratioP1;P2;durP2;ratioP2
60847;SDS011;46681;47.696;9.140;2023-05-10T00:00:42;0.60;;;0.60;;
60847;SDS011;46681;47.696;9.140;2023-05-10T00:03:08;0.67;;;0.67;;
60847;SDS011;46681;47.696;9.140;2023-05-10T00:05:33;0.60;;;0.60;;
60847;SDS011;46681;47.696;9.140;2023-05-10T00:07:59;0.50;;;0.50;;
60847;SDS011;46681;47.696;9.140;2023-05-10T00:10:24;0.50;;;0.50;;
60847;SDS011;46681;47.696;9.140;2023-05-10T00:12:50;1.37;;;0.60;;
60847;SDS011;46681;47.696;9.140;2023-05-10T00:15:15;0.50;;;0.50;;
60847;SDS011;46681;47.696;9.140;2023-05-10T00:17:42;0.50;;;0.50;;
60847;SDS011;46681;47.696;9.140;2023-05-10T00:20:08;0.47;;;0.47;;
60847;SDS011;46681;47.696;9.140;2023-05-10T00:22:34;0.40;;;0.40;;
60847;SDS011;46681;47.696;9.140;2023-05-10T00:25:00;0.60;;;0.60;;
60847;SDS011;46681;47.696;9.140;2023-05-10T00:27:26;1.40;;;0.50;;
60847;SDS011;46681;47.696;9.140;2023-05-10T00:29:51;0.70;;;0.70;;
60847;SDS011;46681;47.696;9.140;2023-05-10T00:32:17;0.50;;;0.50;;
60847;SDS011;46681;47.696;9.140;2023-05-10T00:34:42;0.50;;;0.50;;
60847;SDS011;46681;47.696;9.140;2023-05-10T00:37:09;2.67;;;0.60;;
60847;SDS011;46681;47.696;9.140;2023-05-10T00:39:35;0.70;;;0.70;;
60847;SDS011;46681;47.696;9.140;2023-05-10T00:42:00;1.13;;;0.60;;
60847;SDS011;46681;47.696;9.140;2023-05-10T00:44:27;0.60;;;0.60;;
60847;SDS011;46681;47.696;9.140;2023-05-10T00:46:53;0.60;;;0.60;;
60847;SDS011;46681;47.696;9.140;2023-05-10T00:49:21;1.47;;;0.70;;
60847;SDS011;46681;47.696;9.140;2023-05-10T00:51:46;0.40;;;0.40;;
60847;SDS011;46681;47.696;9.140;2023-05-10T00:54:12;0.87;;;0.60;;
60847;SDS011;46681;47.696;9.140;2023-05-10T00:56:41;0.50;;;0.50;;
60847;SDS011;46681;47.696;9.140;2023-05-10T00:59:09;2.73;;;0.67;;
60847;SDS011;46681;47.696;9.140;2023-05-10T01:01:36;1.60;;;0.60;;
60847;SDS011;46681;47.696;9.140;2023-05-10T01:04:02;0.50;;;0.50;;
60847;SDS011;46681;47.696;9.140;2023-05-10T01:06:28;0.50;;;0.50;;
60847;SDS011;46681;47.696;9.140;2023-05-10T01:08:53;1.23;;;0.67;;
60847;SDS011;46681;47.696;9.140;2023-05-10T01:11:19;0.50;;;0.50;;
60847;SDS011;46681;47.696;9.140;2023-05-10T01:13:51;0.60;;;0.60;;
60847;SDS011;46681;47.696;9.140;2023-05-10T01:16:23;0.50;;;0.50;;
60847;SDS011;46681;47.696;9.140;2023-05-10T01:18:49;0.97;;;0.60;;
60847;SDS011;46681;47.696;9.140;2023-05-10T01:21:23;1.30;;;0.70;;
60847;SDS011;46681;47.696;9.140;2023-05-10T01:26:55;0.90;;;0.90;;
60847;SDS011;46681;47.696;9.140;2023-05-10T01:33:00;0.60;;;0.60;;
60847;SDS011;46681;47.696;9.140;2023-05-10T01:35:43;0.50;;;0.50;;
60847;SDS011;46681;47.696;9.140;2023-05-10T01:44:45;0.60;;;0.60;;
60847;SDS011;46681;47.696;9.140;2023-05-10T01:46:38;1.23;;;0.80;;
60847;SDS011;46681;47.696;9.140;2023-05-10T01:49:09;1.50;;;0.67;;
60847;SDS011;46681;47.696;9.140;2023-05-10T01:51:46;0.50;;;0.50;;
60847;SDS011;46681;47.696;9.140;2023-05-10T01:54:17;0.70;;;0.70;;
60847;SDS011;46681;47.696;9.140;2023-05-10T01:56:52;1.40;;;0.60;;
60847;SDS011;46681;47.696;9.140;2023-05-10T01:59:22;1.47;;;0.50;;
60847;SDS011;46681;47.696;9.140;2023-05-10T02:01:51;0.60;;;0.60;;
60847;SDS011;46681;47.696;9.140;2023-05-10T02:04:18;1.17;;;0.60;;
60847;SDS011;46681;47.696;9.140;2023-05-10T02:06:48;0.60;;;0.60;;
60847;SDS011;46681;47.696;9.140;2023-05-10T02:09:18;0.57;;;0.57;;
60847;SDS011;46681;47.696;9.140;2023-05-10T02:11:53;0.70;;;0.70;;
60847;SDS011;46681;47.696;9.140;2023-05-10T02:14:25;2.73;;;1.07;;
60847;SDS011;46681;47.696;9.140;2023-05-10T02:16:55;1.63;;;0.70;;
60847;SDS011;46681;47.696;9.140;2023-05-10T02:19:25;0.63;;;0.57;;
60847;SDS011;46681;47.696;9.140;2023-05-10T02:21:55;1.20;;;0.80;;
60847;SDS011;46681;47.696;9.140;2023-05-10T02:24:24;0.67;;;0.67;;
60847;SDS011;46681;47.696;9.140;2023-05-10T02:26:52;2.83;;;0.67;;
60847;SDS011;46681;47.696;9.140;2023-05-10T02:29:22;0.73;;;0.60;;
60847;SDS011;46681;47.696;9.140;2023-05-10T02:31:51;0.60;;;0.60;;
60847;SDS011;46681;47.696;9.140;2023-05-10T02:34:17;0.67;;;0.67;;
60847;SDS011;46681;47.696;9.140;2023-05-10T02:36:46;1.03;;;0.57;;
60847;SDS011;46681;47.696;9.140;2023-05-10T02:39:18;2.47;;;0.70;;
60847;SDS011;46681;47.696;9.140;2023-05-10T02:41:48;0.77;;;0.70;;
60847;SDS011;46681;47.696;9.140;2023-05-10T02:44:17;0.50;;;0.50;;
60847;SDS011;46681;47.696;9.140;2023-05-10T02:46:44;1.13;;;0.60;;
60847;SDS011;46681;47.696;9.140;2023-05-10T02:49:10;0.70;;;0.70;;
60847;SDS011;46681;47.696;9.140;2023-05-10T02:51:37;0.70;;;0.70;;
60847;SDS011;46681;47.696;9.140;2023-05-10T02:54:18;1.50;;;0.60;;
60847;SDS011;46681;47.696;9.140;2023-05-10T02:56:50;0.60;;;0.60;;
60847;SDS011;46681;47.696;9.140;2023-05-10T02:59:21;0.60;;;0.60;;
60847;SDS011;46681;47.696;9.140;2023-05-10T03:01:47;0.63;;;0.63;;
60847;SDS011;46681;47.696;9.140;2023-05-10T03:04:12;0.90;;;0.77;;
60847;SDS011;46681;47.696;9.140;2023-05-10T03:06:38;0.73;;;0.73;;
60847;SDS011;46681;47.696;9.140;2023-05-10T03:09:04;0.70;;;0.70;;
60847;SDS011;46681;47.696;9.140;2023-05-10T03:14:21;2.10;;;0.70;;
60847;SDS011;46681;47.696;9.140;2023-05-10T03:17:20;0.97;;;0.63;;
60847;SDS011;46681;47.696;9.140;2023-05-10T03:19:53;0.73;;;0.70;;
60847;SDS011;46681;47.696;9.140;2023-05-10T03:22:23;0.70;;;0.60;;
60847;SDS011;46681;47.696;9.140;2023-05-10T03:24:55;0.63;;;0.63;;
60847;SDS011;46681;47.696;9.140;2023-05-10T03:27:22;1.07;;;0.70;;
60847;SDS011;46681;47.696;9.140;2023-05-10T03:29:50;0.93;;;0.60;;
60847;SDS011;46681;47.696;9.140;2023-05-10T03:32:18;1.17;;;0.70;;
60847;SDS011;46681;47.696;9.140;2023-05-10T03:34:44;1.07;;;0.80;;
60847;SDS011;46681;47.696;9.140;2023-05-10T03:37:10;1.80;;;0.60;;
60847;SDS011;46681;47.696;9.140;2023-05-10T03:39:35;1.40;;;0.60;;
60847;SDS011;46681;47.696;9.140;2023-05-10T03:42:01;1.17;;;0.70;;
60847;SDS011;46681;47.696;9.140;2023-05-10T03:44:26;1.63;;;0.90;;
60847;SDS011;46681;47.696;9.140;2023-05-10T03:46:53;0.80;;;0.80;;
60847;SDS011;46681;47.696;9.140;2023-05-10T03:49:21;0.93;;;0.70;;
60847;SDS011;46681;47.696;9.140;2023-05-10T03:51:46;0.63;;;0.63;;
60847;SDS011;46681;47.696;9.140;2023-05-10T03:54:12;1.90;;;0.70;;
60847;SDS011;46681;47.696;9.140;2023-05-10T03:56:37;0.70;;;0.70;;
60847;SDS011;46681;47.696;9.140;2023-05-10T03:59:05;1.73;;;1.00;;
60847;SDS011;46681;47.696;9.140;2023-05-10T04:01:30;0.97;;;0.97;;
60847;SDS011;46681;47.696;9.140;2023-05-10T04:03:56;2.00;;;0.70;;
60847;SDS011;46681;47.696;9.140;2023-05-10T04:06:21;1.30;;;0.80;;
60847;SDS011;46681;47.696;9.140;2023-05-10T04:08:47;2.40;;;0.60;;
60847;SDS011;46681;47.696;9.140;2023-05-10T04:11:13;0.90;;;0.90;;
60847;SDS011;46681;47.696;9.140;2023-05-10T04:13:41;1.63;;;0.83;;
60847;SDS011;46681;47.696;9.140;2023-05-10T04:16:06;2.00;;;0.70;;
60847;SDS011;46681;47.696;9.140;2023-05-10T04:18:33;0.80;;;0.80;;
60847;SDS011;46681;47.696;9.140;2023-05-10T04:20:59;3.50;;;0.70;;
60847;SDS011;46681;47.696;9.140;2023-05-10T04:23:26;2.23;;;1.07;;
60847;SDS011;46681;47.696;9.140;2023-05-10T04:25:52;2.23;;;1.40;;
60847;SDS011;46681;47.696;9.140;2023-05-10T04:28:17;1.63;;;1.00;;
60847;SDS011;46681;47.696;9.140;2023-05-10T04:30:43;5.00;;;1.80;;
60847;SDS011;46681;47.696;9.140;2023-05-10T04:33:10;2.20;;;1.80;;
60847;SDS011;46681;47.696;9.140;2023-05-10T04:35:37;6.07;;;3.07;;
60847;SDS011;46681;47.696;9.140;2023-05-10T04:38:02;5.27;;;2.43;;
60847;SDS011;46681;47.696;9.140;2023-05-10T04:40:28;8.30;;;3.07;;
60847;SDS011;46681;47.696;9.140;2023-05-10T04:42:54;6.57;;;2.83;;
60847;SDS011;46681;47.696;9.140;2023-05-10T04:45:20;7.57;;;2.93;;
60847;SDS011;46681;47.696;9.140;2023-05-10T04:47:47;8.03;;;2.97;;
60847;SDS011;46681;47.696;9.140;2023-05-10T04:50:12;7.07;;;2.50;;
60847;SDS011;46681;47.696;9.140;2023-05-10T04:52:45;4.63;;;2.30;;
60847;SDS011;46681;47.696;9.140;2023-05-10T04:55:12;7.30;;;2.43;;
60847;SDS011;46681;47.696;9.140;2023-05-10T04:57:38;3.80;;;2.13;;
60847;SDS011;46681;47.696;9.140;2023-05-10T05:00:05;4.57;;;2.10;;
60847;SDS011;46681;47.696;9.140;2023-05-10T05:02:42;2.30;;;1.50;;
60847;SDS011;46681;47.696;9.140;2023-05-10T05:05:11;2.73;;;1.50;;
60847;SDS011;46681;47.696;9.140;2023-05-10T05:07:37;2.53;;;1.60;;
60847;SDS011;46681;47.696;9.140;2023-05-10T05:10:06;2.90;;;1.50;;
60847;SDS011;46681;47.696;9.140;2023-05-10T05:12:35;1.23;;;1.10;;
60847;SDS011;46681;47.696;9.140;2023-05-10T05:15:05;1.50;;;1.13;;
60847;SDS011;46681;47.696;9.140;2023-05-10T05:17:35;2.13;;;1.07;;
60847;SDS011;46681;47.696;9.140;2023-05-10T05:20:03;1.30;;;1.20;;
60847;SDS011;46681;47.696;9.140;2023-05-10T05:22:31;2.50;;;0.93;;
60847;SDS011;46681;47.696;9.140;2023-05-10T05:24:58;1.30;;;0.90;;
60847;SDS011;46681;47.696;9.140;2023-05-10T05:27:24;1.60;;;0.97;;
60847;SDS011;46681;47.696;9.140;2023-05-10T05:29:50;4.57;;;1.10;;
60847;SDS011;46681;47.696;9.140;2023-05-10T05:32:21;3.17;;;0.90;;
60847;SDS011;46681;47.696;9.140;2023-05-10T05:34:52;7.70;;;2.40;;
60847;SDS011;46681;47.696;9.140;2023-05-10T05:37:24;8.70;;;2.80;;
60847;SDS011;46681;47.696;9.140;2023-05-10T05:39:50;5.93;;;2.53;;
60847;SDS011;46681;47.696;9.140;2023-05-10T05:42:15;6.13;;;1.70;;
60847;SDS011;46681;47.696;9.140;2023-05-10T05:44:47;4.40;;;1.50;;
60847;SDS011;46681;47.696;9.140;2023-05-10T05:47:15;3.73;;;1.40;;
60847;SDS011;46681;47.696;9.140;2023-05-10T05:49:41;2.50;;;1.67;;
60847;SDS011;46681;47.696;9.140;2023-05-10T05:52:06;2.80;;;1.10;;
60847;SDS011;46681;47.696;9.140;2023-05-10T05:54:33;3.67;;;1.40;;
60847;SDS011;46681;47.696;9.140;2023-05-10T05:56:59;4.20;;;1.60;;
60847;SDS011;46681;47.696;9.140;2023-05-10T05:59:27;3.93;;;1.37;;
60847;SDS011;46681;47.696;9.140;2023-05-10T06:01:57;2.43;;;1.27;;
60847;SDS011;46681;47.696;9.140;2023-05-10T06:04:27;3.63;;;1.77;;
60847;SDS011;46681;47.696;9.140;2023-05-10T06:06:52;2.97;;;1.50;;
60847;SDS011;46681;47.696;9.140;2023-05-10T06:09:21;4.27;;;1.33;;
60847;SDS011;46681;47.696;9.140;2023-05-10T06:11:48;5.40;;;1.50;;
60847;SDS011;46681;47.696;9.140;2023-05-10T06:14:27;6.33;;;1.50;;
60847;SDS011;46681;47.696;9.140;2023-05-10T06:16:57;5.23;;;1.60;;
60847;SDS011;46681;47.696;9.140;2023-05-10T06:19:26;2.67;;;1.07;;
60847;SDS011;46681;47.696;9.140;2023-05-10T06:21:55;5.43;;;1.50;;
60847;SDS011;46681;47.696;9.140;2023-05-10T06:24:22;3.90;;;1.37;;
60847;SDS011;46681;47.696;9.140;2023-05-10T06:26:52;3.80;;;1.30;;
60847;SDS011;46681;47.696;9.140;2023-05-10T06:29:21;3.97;;;1.60;;
60847;SDS011;46681;47.696;9.140;2023-05-10T06:31:48;1.60;;;1.50;;
60847;SDS011;46681;47.696;9.140;2023-05-10T06:34:17;5.47;;;1.60;;
60847;SDS011;46681;47.696;9.140;2023-05-10T06:36:43;3.17;;;1.10;;
60847;SDS011;46681;47.696;9.140;2023-05-10T06:39:08;1.77;;;1.53;;
60847;SDS011;46681;47.696;9.140;2023-05-10T06:41:34;4.80;;;1.20;;
60847;SDS011;46681;47.696;9.140;2023-05-10T06:43:59;2.00;;;1.17;;
60847;SDS011;46681;47.696;9.140;2023-05-10T06:46:33;2.57;;;1.10;;
60847;SDS011;46681;47.696;9.140;2023-05-10T06:49:00;1.57;;;1.20;;
60847;SDS011;46681;47.696;9.140;2023-05-10T06:51:29;2.87;;;1.27;;
60847;SDS011;46681;47.696;9.140;2023-05-10T06:53:56;2.03;;;1.40;;
60847;SDS011;46681;47.696;9.140;2023-05-10T06:56:22;1.13;;;1.03;;
60847;SDS011;46681;47.696;9.140;2023-05-10T06:58:50;1.60;;;1.33;;
60847;SDS011;46681;47.696;9.140;2023-05-10T07:01:16;3.00;;;1.30;;
60847;SDS011;46681;47.696;9.140;2023-05-10T07:03:45;1.57;;;1.20;;
60847;SDS011;46681;47.696;9.140;2023-05-10T07:06:11;1.43;;;1.20;;
60847;SDS011;46681;47.696;9.140;2023-05-10T07:08:39;1.20;;;1.10;;
60847;SDS011;46681;47.696;9.140;2023-05-10T07:11:16;1.40;;;1.20;;
60847;SDS011;46681;47.696;9.140;2023-05-10T07:13:41;1.83;;;1.10;;
60847;SDS011;46681;47.696;9.140;2023-05-10T07:16:07;1.37;;;1.23;;
60847;SDS011;46681;47.696;9.140;2023-05-10T07:18:37;1.20;;;1.10;;
60847;SDS011;46681;47.696;9.140;2023-05-10T07:21:04;5.40;;;1.50;;
60847;SDS011;46681;47.696;9.140;2023-05-10T07:23:29;2.07;;;1.13;;
60847;SDS011;46681;47.696;9.140;2023-05-10T07:25:57;1.77;;;1.30;;
60847;SDS011;46681;47.696;9.140;2023-05-10T07:28:25;3.30;;;1.50;;
60847;SDS011;46681;47.696;9.140;2023-05-10T07:30:52;3.73;;;1.50;;
60847;SDS011;46681;47.696;9.140;2023-05-10T07:33:21;3.00;;;2.10;;
60847;SDS011;46681;47.696;9.140;2023-05-10T07:35:47;4.40;;;2.10;;
60847;SDS011;46681;47.696;9.140;2023-05-10T07:38:16;2.70;;;1.70;;
60847;SDS011;46681;47.696;9.140;2023-05-10T07:40:44;4.03;;;1.50;;
60847;SDS011;46681;47.696;9.140;2023-05-10T07:43:11;2.83;;;1.40;;
60847;SDS011;46681;47.696;9.140;2023-05-10T07:45:41;2.93;;;1.50;;
60847;SDS011;46681;47.696;9.140;2023-05-10T07:48:11;1.70;;;1.20;;
60847;SDS011;46681;47.696;9.140;2023-05-10T07:50:37;2.80;;;1.63;;
60847;SDS011;46681;47.696;9.140;2023-05-10T07:53:03;2.30;;;1.90;;
60847;SDS011;46681;47.696;9.140;2023-05-10T07:55:39;3.07;;;1.30;;
60847;SDS011;46681;47.696;9.140;2023-05-10T07:58:06;2.67;;;1.57;;
60847;SDS011;46681;47.696;9.140;2023-05-10T08:00:32;1.80;;;1.20;;
60847;SDS011;46681;47.696;9.140;2023-05-10T08:03:00;1.70;;;1.30;;
60847;SDS011;46681;47.696;9.140;2023-05-10T08:05:27;3.13;;;1.30;;
60847;SDS011;46681;47.696;9.140;2023-05-10T08:07:54;2.20;;;1.20;;
60847;SDS011;46681;47.696;9.140;2023-05-10T08:10:20;1.10;;;1.10;;
60847;SDS011;46681;47.696;9.140;2023-05-10T08:12:46;1.47;;;1.37;;
60847;SDS011;46681;47.696;9.140;2023-05-10T08:15:23;0.97;;;0.97;;
60847;SDS011;46681;47.696;9.140;2023-05-10T08:17:53;2.13;;;1.03;;
60847;SDS011;46681;47.696;9.140;2023-05-10T08:20:19;2.33;;;1.13;;
60847;SDS011;46681;47.696;9.140;2023-05-10T08:22:54;0.93;;;0.90;;
60847;SDS011;46681;47.696;9.140;2023-05-10T08:25:23;3.13;;;1.90;;
60847;SDS011;46681;47.696;9.140;2023-05-10T08:27:49;3.70;;;2.10;;
60847;SDS011;46681;47.696;9.140;2023-05-10T08:30:23;3.97;;;1.83;;
60847;SDS011;46681;47.696;9.140;2023-05-10T08:32:54;2.13;;;1.77;;
60847;SDS011;46681;47.696;9.140;2023-05-10T08:35:39;1.50;;;1.23;;
60847;SDS011;46681;47.696;9.140;2023-05-10T08:38:07;2.80;;;1.27;;
60847;SDS011;46681;47.696;9.140;2023-05-10T08:40:37;1.37;;;1.27;;
60847;SDS011;46681;47.696;9.140;2023-05-10T08:43:12;1.30;;;1.17;;
60847;SDS011;46681;47.696;9.140;2023-05-10T08:45:49;2.20;;;1.30;;
60847;SDS011;46681;47.696;9.140;2023-05-10T08:48:24;1.10;;;1.10;;
60847;SDS011;46681;47.696;9.140;2023-05-10T08:50:54;1.23;;;1.00;;
60847;SDS011;46681;47.696;9.140;2023-05-10T08:53:32;1.43;;;1.10;;
60847;SDS011;46681;47.696;9.140;2023-05-10T08:56:05;1.10;;;1.00;;
60847;SDS011;46681;47.696;9.140;2023-05-10T08:58:34;2.63;;;1.23;;
60847;SDS011;46681;47.696;9.140;2023-05-10T09:01:05;1.33;;;1.20;;
60847;SDS011;46681;47.696;9.140;2023-05-10T09:03:38;1.13;;;1.13;;
60847;SDS011;46681;47.696;9.140;2023-05-10T09:06:08;3.87;;;1.30;;
60847;SDS011;46681;47.696;9.140;2023-05-10T09:08:39;0.90;;;0.90;;
60847;SDS011;46681;47.696;9.140;2023-05-10T09:11:08;1.97;;;1.03;;
60847;SDS011;46681;47.696;9.140;2023-05-10T09:13:41;1.30;;;1.00;;
60847;SDS011;46681;47.696;9.140;2023-05-10T09:16:14;1.30;;;1.30;;
60847;SDS011;46681;47.696;9.140;2023-05-10T09:18:47;1.37;;;1.10;;
60847;SDS011;46681;47.696;9.140;2023-05-10T09:21:15;1.37;;;1.00;;
60847;SDS011;46681;47.696;9.140;2023-05-10T09:23:50;2.73;;;1.60;;
60847;SDS011;46681;47.696;9.140;2023-05-10T09:26:15;1.13;;;1.03;;
60847;SDS011;46681;47.696;9.140;2023-05-10T09:28:55;2.63;;;1.37;;
60847;SDS011;46681;47.696;9.140;2023-05-10T09:31:47;2.93;;;1.30;;
60847;SDS011;46681;47.696;9.140;2023-05-10T09:34:38;4.70;;;1.10;;
60847;SDS011;46681;47.696;9.140;2023-05-10T09:37:06;3.20;;;1.10;;
60847;SDS011;46681;47.696;9.140;2023-05-10T09:39:37;2.10;;;1.40;;
60847;SDS011;46681;47.696;9.140;2023-05-10T09:43:02;3.57;;;1.20;;
60847;SDS011;46681;47.696;9.140;2023-05-10T09:45:36;7.93;;;1.40;;
60847;SDS011;46681;47.696;9.140;2023-05-10T09:48:06;1.20;;;1.07;;
60847;SDS011;46681;47.696;9.140;2023-05-10T09:51:24;1.23;;;1.07;;
60847;SDS011;46681;47.696;9.140;2023-05-10T09:54:14;1.90;;;1.23;;
60847;SDS011;46681;47.696;9.140;2023-05-10T09:57:22;2.43;;;0.87;;
60847;SDS011;46681;47.696;9.140;2023-05-10T09:59:59;1.40;;;1.00;;
60847;SDS011;46681;47.696;9.140;2023-05-10T10:02:39;5.77;;;1.30;;
60847;SDS011;46681;47.696;9.140;2023-05-10T10:05:35;7.67;;;1.27;;
60847;SDS011;46681;47.696;9.140;2023-05-10T10:08:15;4.30;;;1.10;;
60847;SDS011;46681;47.696;9.140;2023-05-10T10:10:51;3.10;;;1.20;;
60847;SDS011;46681;47.696;9.140;2023-05-10T10:13:20;1.20;;;1.10;;
60847;SDS011;46681;47.696;9.140;2023-05-10T10:15:49;3.13;;;0.90;;
60847;SDS011;46681;47.696;9.140;2023-05-10T10:18:49;2.30;;;0.90;;
60847;SDS011;46681;47.696;9.140;2023-05-10T10:21:33;3.00;;;0.87;;
60847;SDS011;46681;47.696;9.140;2023-05-10T10:24:36;1.20;;;1.00;;
60847;SDS011;46681;47.696;9.140;2023-05-10T10:34:26;2.33;;;1.23;;
60847;SDS011;46681;47.696;9.140;2023-05-10T10:36:45;3.37;;;0.90;;
60847;SDS011;46681;47.696;9.140;2023-05-10T10:45:28;2.03;;;1.00;;
60847;SDS011;46681;47.696;9.140;2023-05-10T10:48:19;2.67;;;1.10;;
60847;SDS011;46681;47.696;9.140;2023-05-10T10:54:21;1.43;;;1.03;;
60847;SDS011;46681;47.696;9.140;2023-05-10T11:00:27;3.37;;;1.03;;
60847;SDS011;46681;47.696;9.140;2023-05-10T11:03:08;1.00;;;0.70;;
60847;SDS011;46681;47.696;9.140;2023-05-10T11:05:59;4.70;;;1.10;;
60847;SDS011;46681;47.696;9.140;2023-05-10T11:08:57;2.83;;;0.97;;
60847;SDS011;46681;47.696;9.140;2023-05-10T11:26:18;3.60;;;1.57;;
60847;SDS011;46681;47.696;9.140;2023-05-10T11:29:15;3.67;;;2.33;;
60847;SDS011;46681;47.696;9.140;2023-05-10T11:32:15;3.97;;;2.47;;
60847;SDS011;46681;47.696;9.140;2023-05-10T11:34:41;3.77;;;1.60;;
60847;SDS011;46681;47.696;9.140;2023-05-10T11:37:07;4.13;;;2.03;;
60847;SDS011;46681;47.696;9.140;2023-05-10T11:39:35;7.63;;;2.37;;
60847;SDS011;46681;47.696;9.140;2023-05-10T11:42:09;6.03;;;2.43;;
60847;SDS011;46681;47.696;9.140;2023-05-10T11:47:32;3.93;;;2.07;;
60847;SDS011;46681;47.696;9.140;2023-05-10T11:50:32;6.30;;;1.60;;
60847;SDS011;46681;47.696;9.140;2023-05-10T11:53:19;4.93;;;2.23;;
60847;SDS011;46681;47.696;9.140;2023-05-10T11:56:06;4.50;;;1.43;;
60847;SDS011;46681;47.696;9.140;2023-05-10T11:58:40;7.07;;;1.83;;
60847;SDS011;46681;47.696;9.140;2023-05-10T12:01:41;2.47;;;1.50;;
60847;SDS011;46681;47.696;9.140;2023-05-10T12:04:44;5.60;;;1.80;;
60847;SDS011;46681;47.696;9.140;2023-05-10T12:07:29;3.97;;;1.80;;
60847;SDS011;46681;47.696;9.140;2023-05-10T12:10:11;8.73;;;1.90;;
60847;SDS011;46681;47.696;9.140;2023-05-10T12:12:55;3.37;;;1.30;;
60847;SDS011;46681;47.696;9.140;2023-05-10T12:15:31;2.67;;;1.20;;
60847;SDS011;46681;47.696;9.140;2023-05-10T12:17:58;2.97;;;1.20;;
60847;SDS011;46681;47.696;9.140;2023-05-10T12:20:39;4.97;;;1.47;;
60847;SDS011;46681;47.696;9.140;2023-05-10T12:23:32;2.70;;;1.30;;
60847;SDS011;46681;47.696;9.140;2023-05-10T12:26:06;5.40;;;1.70;;
60847;SDS011;46681;47.696;9.140;2023-05-10T12:29:17;4.03;;;1.17;;
60847;SDS011;46681;47.696;9.140;2023-05-10T12:31:58;2.70;;;1.23;;
60847;SDS011;46681;47.696;9.140;2023-05-10T12:37:39;1.77;;;1.20;;
60847;SDS011;46681;47.696;9.140;2023-05-10T12:40:29;1.83;;;1.10;;
60847;SDS011;46681;47.696;9.140;2023-05-10T12:42:59;4.03;;;1.33;;
60847;SDS011;46681;47.696;9.140;2023-05-10T12:45:35;1.57;;;1.00;;
60847;SDS011;46681;47.696;9.140;2023-05-10T12:48:01;3.60;;;1.20;;
60847;SDS011;46681;47.696;9.140;2023-05-10T12:50:28;2.93;;;1.13;;
60847;SDS011;46681;47.696;9.140;2023-05-10T12:53:02;2.43;;;1.40;;
60847;SDS011;46681;47.696;9.140;2023-05-10T12:55:45;3.33;;;1.40;;
60847;SDS011;46681;47.696;9.140;2023-05-10T12:58:14;5.30;;;1.30;;
60847;SDS011;46681;47.696;9.140;2023-05-10T13:00:57;2.37;;;1.33;;
60847;SDS011;46681;47.696;9.140;2023-05-10T13:03:29;3.27;;;1.00;;
60847;SDS011;46681;47.696;9.140;2023-05-10T13:06:06;2.97;;;1.00;;
60847;SDS011;46681;47.696;9.140;2023-05-10T13:08:32;2.73;;;1.17;;
60847;SDS011;46681;47.696;9.140;2023-05-10T13:11:01;4.67;;;1.47;;
60847;SDS011;46681;47.696;9.140;2023-05-10T13:13:38;3.50;;;1.30;;
60847;SDS011;46681;47.696;9.140;2023-05-10T13:16:09;3.47;;;1.27;;
60847;SDS011;46681;47.696;9.140;2023-05-10T13:18:48;1.60;;;0.97;;
60847;SDS011;46681;47.696;9.140;2023-05-10T13:21:22;3.83;;;1.00;;
60847;SDS011;46681;47.696;9.140;2023-05-10T13:23:58;1.17;;;0.80;;
60847;SDS011;46681;47.696;9.140;2023-05-10T13:26:35;1.57;;;0.90;;
60847;SDS011;46681;47.696;9.140;2023-05-10T13:29:12;1.50;;;1.10;;
60847;SDS011;46681;47.696;9.140;2023-05-10T13:31:45;3.67;;;1.30;;
60847;SDS011;46681;47.696;9.140;2023-05-10T13:34:13;2.47;;;1.20;;
60847;SDS011;46681;47.696;9.140;2023-05-10T13:36:44;1.27;;;1.03;;
60847;SDS011;46681;47.696;9.140;2023-05-10T13:39:10;1.10;;;0.90;;
60847;SDS011;46681;47.696;9.140;2023-05-10T13:41:44;3.27;;;1.07;;
60847;SDS011;46681;47.696;9.140;2023-05-10T13:44:23;1.73;;;0.97;;
60847;SDS011;46681;47.696;9.140;2023-05-10T13:47:00;1.80;;;0.80;;
60847;SDS011;46681;47.696;9.140;2023-05-10T13:49:37;3.40;;;1.17;;
60847;SDS011;46681;47.696;9.140;2023-05-10T13:52:16;1.07;;;0.83;;
60847;SDS011;46681;47.696;9.140;2023-05-10T13:54:42;1.13;;;1.00;;
60847;SDS011;46681;47.696;9.140;2023-05-10T13:57:11;3.43;;;1.10;;
60847;SDS011;46681;47.696;9.140;2023-05-10T13:59:45;1.87;;;1.10;;
60847;SDS011;46681;47.696;9.140;2023-05-10T14:02:13;2.90;;;1.20;;
60847;SDS011;46681;47.696;9.140;2023-05-10T14:04:58;1.60;;;1.00;;
60847;SDS011;46681;47.696;9.140;2023-05-10T14:07:27;3.33;;;1.00;;
60847;SDS011;46681;47.696;9.140;2023-05-10T14:10:15;0.90;;;0.90;;
60847;SDS011;46681;47.696;9.140;2023-05-10T14:13:02;2.80;;;1.13;;
60847;SDS011;46681;47.696;9.140;2023-05-10T14:16:00;2.07;;;1.03;;
60847;SDS011;46681;47.696;9.140;2023-05-10T14:18:28;1.17;;;0.80;;
60847;SDS011;46681;47.696;9.140;2023-05-10T14:21:04;2.83;;;0.80;;
60847;SDS011;46681;47.696;9.140;2023-05-10T14:23:33;2.90;;;1.30;;
60847;SDS011;46681;47.696;9.140;2023-05-10T14:28:55;3.23;;;1.20;;
60847;SDS011;46681;47.696;9.140;2023-05-10T14:31:22;2.70;;;1.10;;
60847;SDS011;46681;47.696;9.140;2023-05-10T14:33:53;4.03;;;1.10;;
60847;SDS011;46681;47.696;9.140;2023-05-10T14:36:29;4.40;;;1.17;;
60847;SDS011;46681;47.696;9.140;2023-05-10T14:38:59;1.47;;;1.10;;
60847;SDS011;46681;47.696;9.140;2023-05-10T14:41:32;1.57;;;1.10;;
60847;SDS011;46681;47.696;9.140;2023-05-10T14:44:02;3.30;;;1.43;;
60847;SDS011;46681;47.696;9.140;2023-05-10T14:46:47;2.17;;;1.17;;
60847;SDS011;46681;47.696;9.140;2023-05-10T14:49:59;2.90;;;1.27;;
60847;SDS011;46681;47.696;9.140;2023-05-10T14:52:32;2.90;;;0.97;;
60847;SDS011;46681;47.696;9.140;2023-05-10T14:54:58;2.53;;;1.10;;
60847;SDS011;46681;47.696;9.140;2023-05-10T14:57:33;6.43;;;1.10;;
60847;SDS011;46681;47.696;9.140;2023-05-10T15:00:04;2.40;;;1.00;;
60847;SDS011;46681;47.696;9.140;2023-05-10T15:02:43;0.97;;;0.83;;
60847;SDS011;46681;47.696;9.140;2023-05-10T15:05:12;1.30;;;0.80;;
60847;SDS011;46681;47.696;9.140;2023-05-10T15:07:39;2.80;;;1.30;;
60847;SDS011;46681;47.696;9.140;2023-05-10T15:10:05;0.80;;;0.80;;
60847;SDS011;46681;47.696;9.140;2023-05-10T15:12:39;1.93;;;1.03;;
60847;SDS011;46681;47.696;9.140;2023-05-10T15:15:07;2.60;;;1.00;;
60847;SDS011;46681;47.696;9.140;2023-05-10T15:17:34;2.37;;;0.90;;
60847;SDS011;46681;47.696;9.140;2023-05-10T15:20:05;2.03;;;1.07;;
60847;SDS011;46681;47.696;9.140;2023-05-10T15:22:40;2.60;;;1.00;;
60847;SDS011;46681;47.696;9.140;2023-05-10T15:25:06;1.23;;;0.90;;
60847;SDS011;46681;47.696;9.140;2023-05-10T15:27:46;0.83;;;0.83;;
60847;SDS011;46681;47.696;9.140;2023-05-10T15:30:14;1.57;;;1.10;;
60847;SDS011;46681;47.696;9.140;2023-05-10T15:32:40;2.83;;;0.87;;
60847;SDS011;46681;47.696;9.140;2023-05-10T15:35:07;2.73;;;1.07;;
60847;SDS011;46681;47.696;9.140;2023-05-10T15:37:47;1.30;;;1.00;;
60847;SDS011;46681;47.696;9.140;2023-05-10T15:40:24;1.40;;;0.93;;
60847;SDS011;46681;47.696;9.140;2023-05-10T15:43:14;1.77;;;1.30;;
60847;SDS011;46681;47.696;9.140;2023-05-10T15:46:21;1.53;;;0.90;;
60847;SDS011;46681;47.696;9.140;2023-05-10T15:49:02;1.37;;;1.03;;
60847;SDS011;46681;47.696;9.140;2023-05-10T15:51:42;1.40;;;0.87;;
60847;SDS011;46681;47.696;9.140;2023-05-10T15:54:25;0.80;;;0.80;;
60847;SDS011;46681;47.696;9.140;2023-05-10T15:57:07;2.03;;;1.07;;
60847;SDS011;46681;47.696;9.140;2023-05-10T15:59:54;1.70;;;1.07;;
60847;SDS011;46681;47.696;9.140;2023-05-10T16:02:29;2.77;;;0.90;;
60847;SDS011;46681;47.696;9.140;2023-05-10T16:04:56;1.83;;;1.10;;
60847;SDS011;46681;47.696;9.140;2023-05-10T16:07:42;2.17;;;1.00;;
60847;SDS011;46681;47.696;9.140;2023-05-10T16:10:21;2.73;;;1.10;;
60847;SDS011;46681;47.696;9.140;2023-05-10T16:12:49;1.60;;;0.90;;
60847;SDS011;46681;47.696;9.140;2023-05-10T16:15:20;1.50;;;1.00;;
60847;SDS011;46681;47.696;9.140;2023-05-10T16:17:57;0.87;;;0.83;;